sensor_id;sensor_type;location;lat;lon;timestamp;P1;durP1;ratioP1;P2;durP2;ratioP2
78824;SDS011;68176;45.554;10.220;2023-03-01T00:00:53;9.30;;;7.15;;
78824;SDS011;68176;45.554;10.220;2023-03-01T00:03:26;11.95;;;7.53;;
78824;SDS011;68176;45.554;10.220;2023-03-01T00:05:53;11.10;;;5.72;;
78824;SDS011;68176;45.554;10.220;2023-03-01T00:08:23;10.15;;;7.32;;
78824;SDS011;68176;45.554;10.220;2023-03-01T00:11:07;11.82;;;8.57;;
78824;SDS011;68176;45.554;10.220;2023-03-01T00:13:33;11.10;;;7.30;;
78824;SDS011;68176;45.554;10.220;2023-03-01T00:16:04;8.10;;;5.70;;
78824;SDS011;68176;45.554;10.220;2023-03-01T00:18:31;11.50;;;8.10;;
78824;SDS011;68176;45.554;10.220;2023-03-01T00:21:00;9.10;;;5.75;;
78824;SDS011;68176;45.554;10.220;2023-03-01T00:23:27;10.23;;;6.45;;
78824;SDS011;68176;45.554;10.220;2023-03-01T00:25:57;10.77;;;7.30;;
78824;SDS011;68176;45.554;10.220;2023-03-01T00:28:27;12.98;;;7.82;;
78824;SDS011;68176;45.554;10.220;2023-03-01T00:31:02;9.63;;;7.28;;
78824;SDS011;68176;45.554;10.220;2023-03-01T00:33:28;5.50;;;3.80;;
78824;SDS011;68176;45.554;10.220;2023-03-01T00:35:57;9.00;;;6.63;;
78824;SDS011;68176;45.554;10.220;2023-03-01T00:38:27;10.82;;;7.18;;
78824;SDS011;68176;45.554;10.220;2023-03-01T00:41:04;11.30;;;7.63;;
78824;SDS011;68176;45.554;10.220;2023-03-01T00:43:31;11.10;;;10.00;;
78824;SDS011;68176;45.554;10.220;2023-03-01T00:46:01;8.00;;;6.00;;
78824;SDS011;68176;45.554;10.220;2023-03-01T00:48:31;8.25;;;5.40;;
78824;SDS011;68176;45.554;10.220;2023-03-01T00:51:03;9.75;;;6.35;;
78824;SDS011;68176;45.554;10.220;2023-03-01T00:53:42;9.52;;;6.35;;
78824;SDS011;68176;45.554;10.220;2023-03-01T00:56:09;12.10;;;4.50;;
78824;SDS011;68176;45.554;10.220;2023-03-01T00:58:37;11.25;;;6.80;;
78824;SDS011;68176;45.554;10.220;2023-03-01T01:01:13;9.85;;;7.18;;
78824;SDS011;68176;45.554;10.220;2023-03-01T01:06:24;5.25;;;3.65;;
78824;SDS011;68176;45.554;10.220;2023-03-01T01:08:52;5.30;;;4.30;;
78824;SDS011;68176;45.554;10.220;2023-03-01T01:11:21;12.02;;;6.15;;
78824;SDS011;68176;45.554;10.220;2023-03-01T01:13:50;8.70;;;6.05;;
78824;SDS011;68176;45.554;10.220;2023-03-01T01:18:50;9.00;;;6.63;;
78824;SDS011;68176;45.554;10.220;2023-03-01T01:21:21;9.80;;;7.53;;
78824;SDS011;68176;45.554;10.220;2023-03-01T01:23:50;8.63;;;6.50;;
78824;SDS011;68176;45.554;10.220;2023-03-01T01:26:23;9.95;;;7.50;;
78824;SDS011;68176;45.554;10.220;2023-03-01T01:28:54;6.10;;;5.20;;
78824;SDS011;68176;45.554;10.220;2023-03-01T01:31:20;8.90;;;7.07;;
78824;SDS011;68176;45.554;10.220;2023-03-01T01:33:51;14.65;;;7.13;;
78824;SDS011;68176;45.554;10.220;2023-03-01T01:36:23;8.70;;;6.50;;
78824;SDS011;68176;45.554;10.220;2023-03-01T01:38:51;8.60;;;6.85;;
78824;SDS011;68176;45.554;10.220;2023-03-01T01:41:24;9.82;;;7.38;;
78824;SDS011;68176;45.554;10.220;2023-03-01T01:46:36;8.73;;;5.63;;
78824;SDS011;68176;45.554;10.220;2023-03-01T01:49:04;10.55;;;7.65;;
78824;SDS011;68176;45.554;10.220;2023-03-01T01:51:37;9.77;;;6.53;;
78824;SDS011;68176;45.554;10.220;2023-03-01T01:54:09;8.13;;;6.43;;
78824;SDS011;68176;45.554;10.220;2023-03-01T01:56:37;10.00;;;6.27;;
78824;SDS011;68176;45.554;10.220;2023-03-01T01:59:07;8.53;;;5.30;;
78824;SDS011;68176;45.554;10.220;2023-03-01T02:01:33;6.90;;;5.70;;
78824;SDS011;68176;45.554;10.220;2023-03-01T02:04:01;10.98;;;6.90;;
78824;SDS011;68176;45.554;10.220;2023-03-01T02:06:32;10.77;;;6.90;;
78824;SDS011;68176;45.554;10.220;2023-03-01T02:09:11;8.07;;;6.03;;
78824;SDS011;68176;45.554;10.220;2023-03-01T02:11:40;11.90;;;7.03;;
78824;SDS011;68176;45.554;10.220;2023-03-01T02:14:06;7.00;;;5.65;;
78824;SDS011;68176;45.554;10.220;2023-03-01T02:16:34;9.20;;;6.60;;
78824;SDS011;68176;45.554;10.220;2023-03-01T02:19:04;8.77;;;5.57;;
78824;SDS011;68176;45.554;10.220;2023-03-01T02:24:25;8.82;;;6.10;;
78824;SDS011;68176;45.554;10.220;2023-03-01T02:27:05;7.10;;;5.05;;
78824;SDS011;68176;45.554;10.220;2023-03-01T02:29:31;7.30;;;4.90;;
78824;SDS011;68176;45.554;10.220;2023-03-01T02:32:00;8.50;;;6.53;;
78824;SDS011;68176;45.554;10.220;2023-03-01T02:34:30;9.95;;;6.63;;
78824;SDS011;68176;45.554;10.220;2023-03-01T02:37:01;10.38;;;6.78;;
78824;SDS011;68176;45.554;10.220;2023-03-01T02:39:40;9.02;;;6.68;;
78824;SDS011;68176;45.554;10.220;2023-03-01T02:42:17;9.20;;;6.68;;
78824;SDS011;68176;45.554;10.220;2023-03-01T02:44:51;10.45;;;6.43;;
78824;SDS011;68176;45.554;10.220;2023-03-01T02:47:16;5.30;;;3.60;;
78824;SDS011;68176;45.554;10.220;2023-03-01T02:52:34;11.05;;;6.40;;
78824;SDS011;68176;45.554;10.220;2023-03-01T02:55:11;9.43;;;6.15;;
78824;SDS011;68176;45.554;10.220;2023-03-01T02:57:43;8.07;;;6.00;;
78824;SDS011;68176;45.554;10.220;2023-03-01T03:00:15;10.30;;;5.80;;
78824;SDS011;68176;45.554;10.220;2023-03-01T03:02:49;8.73;;;6.13;;
78824;SDS011;68176;45.554;10.220;2023-03-01T03:05:29;8.18;;;6.03;;
78824;SDS011;68176;45.554;10.220;2023-03-01T03:07:56;9.50;;;6.27;;
78824;SDS011;68176;45.554;10.220;2023-03-01T03:10:24;10.50;;;6.10;;
78824;SDS011;68176;45.554;10.220;2023-03-01T03:13:15;7.70;;;5.65;;
78824;SDS011;68176;45.554;10.220;2023-03-01T03:15:41;7.00;;;4.20;;
78824;SDS011;68176;45.554;10.220;2023-03-01T03:18:10;9.45;;;6.05;;
78824;SDS011;68176;45.554;10.220;2023-03-01T03:20:41;7.20;;;6.60;;
78824;SDS011;68176;45.554;10.220;2023-03-01T03:23:09;9.82;;;5.97;;
78824;SDS011;68176;45.554;10.220;2023-03-01T03:25:39;9.43;;;7.70;;
78824;SDS011;68176;45.554;10.220;2023-03-01T03:28:18;9.10;;;6.53;;
78824;SDS011;68176;45.554;10.220;2023-03-01T03:30:44;9.27;;;5.77;;
78824;SDS011;68176;45.554;10.220;2023-03-01T03:33:10;8.85;;;5.15;;
78824;SDS011;68176;45.554;10.220;2023-03-01T03:35:40;8.80;;;5.45;;
78824;SDS011;68176;45.554;10.220;2023-03-01T03:38:10;10.48;;;6.82;;
78824;SDS011;68176;45.554;10.220;2023-03-01T03:40:48;9.35;;;5.40;;
78824;SDS011;68176;45.554;10.220;2023-03-01T03:43:33;7.82;;;5.47;;
78824;SDS011;68176;45.554;10.220;2023-03-01T03:46:03;8.95;;;7.82;;
78824;SDS011;68176;45.554;10.220;2023-03-01T03:48:33;11.83;;;6.27;;
78824;SDS011;68176;45.554;10.220;2023-03-01T03:50:59;6.15;;;3.95;;
78824;SDS011;68176;45.554;10.220;2023-03-01T03:53:27;11.90;;;6.60;;
78824;SDS011;68176;45.554;10.220;2023-03-01T03:55:57;11.40;;;8.55;;
78824;SDS011;68176;45.554;10.220;2023-03-01T03:58:27;9.95;;;6.88;;
78824;SDS011;68176;45.554;10.220;2023-03-01T04:00:57;9.77;;;6.07;;
78824;SDS011;68176;45.554;10.220;2023-03-01T04:03:27;10.40;;;7.13;;
78824;SDS011;68176;45.554;10.220;2023-03-01T04:05:57;11.40;;;6.82;;
78824;SDS011;68176;45.554;10.220;2023-03-01T04:08:27;8.63;;;6.22;;
78824;SDS011;68176;45.554;10.220;2023-03-01T04:10:58;10.52;;;7.35;;
78824;SDS011;68176;45.554;10.220;2023-03-01T04:13:27;9.48;;;6.82;;
78824;SDS011;68176;45.554;10.220;2023-03-01T04:15:57;10.55;;;7.60;;
78824;SDS011;68176;45.554;10.220;2023-03-01T04:20:57;10.70;;;6.80;;
78824;SDS011;68176;45.554;10.220;2023-03-01T04:25:58;11.35;;;7.13;;
78824;SDS011;68176;45.554;10.220;2023-03-01T04:28:30;8.57;;;6.05;;
78824;SDS011;68176;45.554;10.220;2023-03-01T04:31:01;8.30;;;4.30;;
78824;SDS011;68176;45.554;10.220;2023-03-01T04:33:38;11.07;;;6.88;;
78824;SDS011;68176;45.554;10.220;2023-03-01T04:36:07;7.75;;;5.80;;
78824;SDS011;68176;45.554;10.220;2023-03-01T04:38:34;6.30;;;5.30;;
78824;SDS011;68176;45.554;10.220;2023-03-01T04:41:02;10.05;;;6.30;;
78824;SDS011;68176;45.554;10.220;2023-03-01T04:43:31;9.63;;;6.38;;
78824;SDS011;68176;45.554;10.220;2023-03-01T04:46:02;8.85;;;6.00;;
78824;SDS011;68176;45.554;10.220;2023-03-01T04:48:32;7.55;;;5.82;;
78824;SDS011;68176;45.554;10.220;2023-03-01T04:51:01;9.93;;;6.80;;
78824;SDS011;68176;45.554;10.220;2023-03-01T04:53:31;13.18;;;7.60;;
78824;SDS011;68176;45.554;10.220;2023-03-01T04:56:02;10.77;;;7.30;;
78824;SDS011;68176;45.554;10.220;2023-03-01T04:58:31;9.15;;;6.85;;
78824;SDS011;68176;45.554;10.220;2023-03-01T05:01:01;14.88;;;8.43;;
78824;SDS011;68176;45.554;10.220;2023-03-01T05:03:40;8.80;;;6.15;;
78824;SDS011;68176;45.554;10.220;2023-03-01T05:06:06;9.35;;;6.30;;
78824;SDS011;68176;45.554;10.220;2023-03-01T05:08:37;11.13;;;6.78;;
78824;SDS011;68176;45.554;10.220;2023-03-01T05:11:04;8.90;;;5.72;;
78824;SDS011;68176;45.554;10.220;2023-03-01T05:13:34;10.07;;;7.38;;
78824;SDS011;68176;45.554;10.220;2023-03-01T05:16:04;11.32;;;7.72;;
78824;SDS011;68176;45.554;10.220;2023-03-01T05:18:34;9.45;;;6.68;;
78824;SDS011;68176;45.554;10.220;2023-03-01T05:21:08;9.57;;;6.75;;
78824;SDS011;68176;45.554;10.220;2023-03-01T05:23:35;4.70;;;3.70;;
78824;SDS011;68176;45.554;10.220;2023-03-01T05:26:04;9.40;;;7.00;;
78824;SDS011;68176;45.554;10.220;2023-03-01T05:28:39;10.07;;;7.50;;
78824;SDS011;68176;45.554;10.220;2023-03-01T05:31:05;5.30;;;4.80;;
78824;SDS011;68176;45.554;10.220;2023-03-01T05:33:37;9.65;;;7.25;;
78824;SDS011;68176;45.554;10.220;2023-03-01T05:36:05;7.40;;;4.85;;
78824;SDS011;68176;45.554;10.220;2023-03-01T05:38:37;10.80;;;6.80;;
78824;SDS011;68176;45.554;10.220;2023-03-01T05:43:34;11.30;;;6.68;;
78824;SDS011;68176;45.554;10.220;2023-03-01T05:46:04;10.25;;;7.10;;
78824;SDS011;68176;45.554;10.220;2023-03-01T05:48:34;10.10;;;6.85;;
78824;SDS011;68176;45.554;10.220;2023-03-01T05:51:04;12.15;;;10.25;;
78824;SDS011;68176;45.554;10.220;2023-03-01T05:53:34;10.95;;;7.30;;
78824;SDS011;68176;45.554;10.220;2023-03-01T05:56:06;10.13;;;6.03;;
78824;SDS011;68176;45.554;10.220;2023-03-01T05:58:34;7.85;;;5.32;;
78824;SDS011;68176;45.554;10.220;2023-03-01T06:01:10;11.65;;;7.63;;
78824;SDS011;68176;45.554;10.220;2023-03-01T06:03:40;11.07;;;7.37;;
78824;SDS011;68176;45.554;10.220;2023-03-01T06:06:05;6.60;;;5.00;;
78824;SDS011;68176;45.554;10.220;2023-03-01T06:08:34;10.50;;;7.03;;
78824;SDS011;68176;45.554;10.220;2023-03-01T06:11:04;10.50;;;6.93;;
78824;SDS011;68176;45.554;10.220;2023-03-01T06:13:34;8.88;;;6.32;;
78824;SDS011;68176;45.554;10.220;2023-03-01T06:16:25;6.90;;;5.10;;
78824;SDS011;68176;45.554;10.220;2023-03-01T06:18:53;10.07;;;6.32;;
78824;SDS011;68176;45.554;10.220;2023-03-01T06:21:18;8.50;;;5.70;;
78824;SDS011;68176;45.554;10.220;2023-03-01T06:23:44;9.40;;;5.88;;
78824;SDS011;68176;45.554;10.220;2023-03-01T06:26:14;9.50;;;6.43;;
78824;SDS011;68176;45.554;10.220;2023-03-01T06:28:44;9.75;;;6.68;;
78824;SDS011;68176;45.554;10.220;2023-03-01T06:31:14;9.05;;;6.47;;
78824;SDS011;68176;45.554;10.220;2023-03-01T06:33:44;10.55;;;6.63;;
78824;SDS011;68176;45.554;10.220;2023-03-01T06:36:15;10.52;;;7.40;;
78824;SDS011;68176;45.554;10.220;2023-03-01T06:38:44;10.88;;;7.63;;
78824;SDS011;68176;45.554;10.220;2023-03-01T06:41:14;11.48;;;7.30;;
78824;SDS011;68176;45.554;10.220;2023-03-01T06:43:44;10.95;;;6.90;;
78824;SDS011;68176;45.554;10.220;2023-03-01T06:46:14;10.75;;;6.95;;
78824;SDS011;68176;45.554;10.220;2023-03-01T06:48:44;11.02;;;7.15;;
78824;SDS011;68176;45.554;10.220;2023-03-01T06:51:14;9.52;;;6.72;;
78824;SDS011;68176;45.554;10.220;2023-03-01T06:53:48;12.45;;;8.20;;
78824;SDS011;68176;45.554;10.220;2023-03-01T06:56:14;25.10;;;16.92;;
78824;SDS011;68176;45.554;10.220;2023-03-01T06:58:44;26.42;;;18.73;;
78824;SDS011;68176;45.554;10.220;2023-03-01T07:01:14;29.83;;;19.75;;
78824;SDS011;68176;45.554;10.220;2023-03-01T07:03:45;32.90;;;20.30;;
78824;SDS011;68176;45.554;10.220;2023-03-01T07:06:15;29.92;;;20.17;;
78824;SDS011;68176;45.554;10.220;2023-03-01T07:08:45;38.55;;;20.70;;
78824;SDS011;68176;45.554;10.220;2023-03-01T07:11:15;31.45;;;19.95;;
78824;SDS011;68176;45.554;10.220;2023-03-01T07:13:45;34.95;;;20.88;;
78824;SDS011;68176;45.554;10.220;2023-03-01T07:18:44;37.22;;;20.10;;
78824;SDS011;68176;45.554;10.220;2023-03-01T07:21:15;35.63;;;21.55;;
78824;SDS011;68176;45.554;10.220;2023-03-01T07:23:46;35.88;;;21.30;;
78824;SDS011;68176;45.554;10.220;2023-03-01T07:26:15;32.88;;;19.60;;
78824;SDS011;68176;45.554;10.220;2023-03-01T07:28:45;38.25;;;22.52;;
78824;SDS011;68176;45.554;10.220;2023-03-01T07:31:17;34.80;;;22.23;;
78824;SDS011;68176;45.554;10.220;2023-03-01T07:33:45;41.42;;;20.42;;
78824;SDS011;68176;45.554;10.220;2023-03-01T07:36:15;41.35;;;23.15;;
78824;SDS011;68176;45.554;10.220;2023-03-01T07:38:45;37.70;;;23.15;;
78824;SDS011;68176;45.554;10.220;2023-03-01T07:41:15;38.20;;;23.55;;
78824;SDS011;68176;45.554;10.220;2023-03-01T07:43:45;41.42;;;23.30;;
78824;SDS011;68176;45.554;10.220;2023-03-01T07:46:15;37.95;;;22.85;;
78824;SDS011;68176;45.554;10.220;2023-03-01T07:48:45;32.85;;;19.02;;
78824;SDS011;68176;45.554;10.220;2023-03-01T07:51:15;35.22;;;20.30;;
78824;SDS011;68176;45.554;10.220;2023-03-01T07:53:45;37.45;;;23.08;;
78824;SDS011;68176;45.554;10.220;2023-03-01T07:56:15;34.25;;;19.77;;
78824;SDS011;68176;45.554;10.220;2023-03-01T07:58:45;33.55;;;20.23;;
78824;SDS011;68176;45.554;10.220;2023-03-01T08:01:16;35.70;;;20.65;;
78824;SDS011;68176;45.554;10.220;2023-03-01T08:03:54;31.77;;;20.73;;
78824;SDS011;68176;45.554;10.220;2023-03-01T08:06:19;28.55;;;18.15;;
78824;SDS011;68176;45.554;10.220;2023-03-01T08:11:15;36.90;;;21.80;;
78824;SDS011;68176;45.554;10.220;2023-03-01T08:13:48;32.60;;;21.50;;
78824;SDS011;68176;45.554;10.220;2023-03-01T08:16:15;38.40;;;20.45;;
78824;SDS011;68176;45.554;10.220;2023-03-01T08:18:45;39.47;;;22.20;;
78824;SDS011;68176;45.554;10.220;2023-03-01T08:21:16;38.40;;;21.85;;
78824;SDS011;68176;45.554;10.220;2023-03-01T08:23:45;36.92;;;21.55;;
78824;SDS011;68176;45.554;10.220;2023-03-01T08:26:16;40.03;;;23.92;;
78824;SDS011;68176;45.554;10.220;2023-03-01T08:28:45;33.78;;;20.50;;
78824;SDS011;68176;45.554;10.220;2023-03-01T08:31:20;35.50;;;22.05;;
78824;SDS011;68176;45.554;10.220;2023-03-01T08:33:48;22.05;;;14.50;;
78824;SDS011;68176;45.554;10.220;2023-03-01T08:36:19;26.90;;;17.05;;
78824;SDS011;68176;45.554;10.220;2023-03-01T08:38:46;27.65;;;15.50;;
78824;SDS011;68176;45.554;10.220;2023-03-01T08:43:45;39.35;;;21.45;;
78824;SDS011;68176;45.554;10.220;2023-03-01T08:46:15;35.65;;;22.00;;
78824;SDS011;68176;45.554;10.220;2023-03-01T08:48:45;32.95;;;20.42;;
78824;SDS011;68176;45.554;10.220;2023-03-01T08:51:16;40.97;;;23.45;;
78824;SDS011;68176;45.554;10.220;2023-03-01T08:53:45;33.55;;;18.92;;
78824;SDS011;68176;45.554;10.220;2023-03-01T08:56:15;34.53;;;21.20;;
78824;SDS011;68176;45.554;10.220;2023-03-01T08:58:45;38.92;;;20.73;;
78824;SDS011;68176;45.554;10.220;2023-03-01T09:01:16;36.05;;;23.40;;
78824;SDS011;68176;45.554;10.220;2023-03-01T09:03:45;34.53;;;21.40;;
78824;SDS011;68176;45.554;10.220;2023-03-01T09:06:15;35.90;;;21.27;;
78824;SDS011;68176;45.554;10.220;2023-03-01T09:08:46;34.72;;;21.85;;
78824;SDS011;68176;45.554;10.220;2023-03-01T09:11:17;35.97;;;19.63;;
78824;SDS011;68176;45.554;10.220;2023-03-01T09:16:16;39.05;;;22.58;;
78824;SDS011;68176;45.554;10.220;2023-03-01T09:18:48;39.83;;;24.38;;
78824;SDS011;68176;45.554;10.220;2023-03-01T09:21:16;34.83;;;22.00;;
78824;SDS011;68176;45.554;10.220;2023-03-01T09:23:51;35.17;;;20.20;;
78824;SDS011;68176;45.554;10.220;2023-03-01T09:26:41;42.95;;;19.88;;
78824;SDS011;68176;45.554;10.220;2023-03-01T09:32:32;35.35;;;20.88;;
78824;SDS011;68176;45.554;10.220;2023-03-01T09:35:00;36.20;;;20.83;;
78824;SDS011;68176;45.554;10.220;2023-03-01T09:37:28;33.10;;;21.65;;
78824;SDS011;68176;45.554;10.220;2023-03-01T09:39:54;31.13;;;19.10;;
78824;SDS011;68176;45.554;10.220;2023-03-01T09:42:25;36.92;;;21.55;;
78824;SDS011;68176;45.554;10.220;2023-03-01T09:44:56;37.13;;;22.17;;
78824;SDS011;68176;45.554;10.220;2023-03-01T09:47:28;18.00;;;11.20;;
78824;SDS011;68176;45.554;10.220;2023-03-01T10:01:23;31.45;;;16.40;;
78824;SDS011;68176;45.554;10.220;2023-03-01T10:09:28;28.10;;;17.00;;
78824;SDS011;68176;45.554;10.220;2023-03-01T10:14:36;23.60;;;16.25;;
78824;SDS011;68176;45.554;10.220;2023-03-01T10:19:49;28.92;;;19.70;;
78824;SDS011;68176;45.554;10.220;2023-03-01T10:22:21;17.10;;;11.50;;
78824;SDS011;68176;45.554;10.220;2023-03-01T10:24:56;30.17;;;14.60;;
78824;SDS011;68176;45.554;10.220;2023-03-01T10:27:51;30.30;;;18.00;;
78824;SDS011;68176;45.554;10.220;2023-03-01T10:33:03;26.00;;;16.77;;
78824;SDS011;68176;45.554;10.220;2023-03-01T10:35:41;25.80;;;15.93;;
78824;SDS011;68176;45.554;10.220;2023-03-01T10:38:08;14.40;;;9.30;;
78824;SDS011;68176;45.554;10.220;2023-03-01T10:40:36;35.53;;;16.48;;
78824;SDS011;68176;45.554;10.220;2023-03-01T10:43:26;25.58;;;17.73;;
78824;SDS011;68176;45.554;10.220;2023-03-01T10:46:14;28.98;;;16.95;;
78824;SDS011;68176;45.554;10.220;2023-03-01T10:49:18;28.27;;;16.07;;
78824;SDS011;68176;45.554;10.220;2023-03-01T10:51:51;30.25;;;20.67;;
78824;SDS011;68176;45.554;10.220;2023-03-01T10:57:00;26.77;;;18.10;;
78824;SDS011;68176;45.554;10.220;2023-03-01T10:59:31;28.43;;;16.17;;
78824;SDS011;68176;45.554;10.220;2023-03-01T11:02:03;27.10;;;17.30;;
78824;SDS011;68176;45.554;10.220;2023-03-01T11:05:03;25.07;;;15.83;;
78824;SDS011;68176;45.554;10.220;2023-03-01T11:07:49;33.92;;;17.33;;
78824;SDS011;68176;45.554;10.220;2023-03-01T11:10:17;29.13;;;17.03;;
78824;SDS011;68176;45.554;10.220;2023-03-01T11:12:48;30.33;;;17.10;;
78824;SDS011;68176;45.554;10.220;2023-03-01T11:15:24;28.33;;;16.57;;
78824;SDS011;68176;45.554;10.220;2023-03-01T11:17:52;27.10;;;19.10;;
78824;SDS011;68176;45.554;10.220;2023-03-01T11:20:26;20.00;;;12.25;;
78824;SDS011;68176;45.554;10.220;2023-03-01T11:23:12;31.48;;;18.25;;
78824;SDS011;68176;45.554;10.220;2023-03-01T11:25:40;31.25;;;18.48;;
78824;SDS011;68176;45.554;10.220;2023-03-01T11:28:12;28.47;;;17.90;;
78824;SDS011;68176;45.554;10.220;2023-03-01T11:30:43;33.42;;;19.88;;
78824;SDS011;68176;45.554;10.220;2023-03-01T11:33:16;28.08;;;18.98;;
78824;SDS011;68176;45.554;10.220;2023-03-01T11:35:56;25.60;;;17.20;;
78824;SDS011;68176;45.554;10.220;2023-03-01T11:38:27;28.05;;;19.52;;
78824;SDS011;68176;45.554;10.220;2023-03-01T11:51:41;39.45;;;19.83;;
78824;SDS011;68176;45.554;10.220;2023-03-01T11:57:24;36.13;;;19.83;;
78824;SDS011;68176;45.554;10.220;2023-03-01T12:05:45;27.80;;;17.20;;
78824;SDS011;68176;45.554;10.220;2023-03-01T12:23:45;35.75;;;18.92;;
78824;SDS011;68176;45.554;10.220;2023-03-01T12:26:34;37.13;;;20.55;;
78824;SDS011;68176;45.554;10.220;2023-03-01T12:29:33;29.73;;;18.40;;
78824;SDS011;68176;45.554;10.220;2023-03-01T12:32:27;47.00;;;19.92;;
78824;SDS011;68176;45.554;10.220;2023-03-01T12:41:26;25.93;;;15.80;;
78824;SDS011;68176;45.554;10.220;2023-03-01T12:44:42;23.77;;;15.57;;
78824;SDS011;68176;45.554;10.220;2023-03-01T12:55:37;28.98;;;17.10;;
78824;SDS011;68176;45.554;10.220;2023-03-01T13:11:24;30.20;;;18.02;;
78824;SDS011;68176;45.554;10.220;2023-03-01T13:14:34;26.00;;;18.02;;
78824;SDS011;68176;45.554;10.220;2023-03-01T13:20:23;32.30;;;17.15;;
78824;SDS011;68176;45.554;10.220;2023-03-01T13:26:28;28.00;;;15.80;;
78824;SDS011;68176;45.554;10.220;2023-03-01T13:28:57;21.70;;;12.20;;
78824;SDS011;68176;45.554;10.220;2023-03-01T13:33:53;28.55;;;15.60;;
78824;SDS011;68176;45.554;10.220;2023-03-01T13:39:02;37.35;;;17.77;;
78824;SDS011;68176;45.554;10.220;2023-03-01T13:47:33;25.90;;;18.07;;
78824;SDS011;68176;45.554;10.220;2023-03-01T13:50:33;25.63;;;16.30;;
78824;SDS011;68176;45.554;10.220;2023-03-01T13:59:46;29.27;;;16.50;;
78824;SDS011;68176;45.554;10.220;2023-03-01T14:02:12;26.02;;;15.55;;
78824;SDS011;68176;45.554;10.220;2023-03-01T14:08:21;23.40;;;16.00;;
78824;SDS011;68176;45.554;10.220;2023-03-01T14:17:27;24.40;;;14.48;;
78824;SDS011;68176;45.554;10.220;2023-03-01T14:20:42;24.25;;;14.35;;
78824;SDS011;68176;45.554;10.220;2023-03-01T14:23:20;18.02;;;11.90;;
78824;SDS011;68176;45.554;10.220;2023-03-01T14:28:56;17.50;;;11.32;;
78824;SDS011;68176;45.554;10.220;2023-03-01T14:43:41;19.10;;;12.52;;
78824;SDS011;68176;45.554;10.220;2023-03-01T14:46:55;16.17;;;9.47;;
78824;SDS011;68176;45.554;10.220;2023-03-01T15:02:54;12.10;;;7.60;;
78824;SDS011;68176;45.554;10.220;2023-03-01T15:08:56;10.87;;;7.07;;
78824;SDS011;68176;45.554;10.220;2023-03-01T15:11:58;11.73;;;7.90;;
78824;SDS011;68176;45.554;10.220;2023-03-01T15:18:43;22.77;;;11.30;;
78824;SDS011;68176;45.554;10.220;2023-03-01T15:28:32;17.77;;;12.63;;
78824;SDS011;68176;45.554;10.220;2023-03-01T15:31:24;21.42;;;11.98;;
78824;SDS011;68176;45.554;10.220;2023-03-01T15:34:57;17.80;;;9.43;;
78824;SDS011;68176;45.554;10.220;2023-03-01T15:45:44;26.17;;;9.77;;
78824;SDS011;68176;45.554;10.220;2023-03-01T15:52:08;16.52;;;11.23;;
78824;SDS011;68176;45.554;10.220;2023-03-01T15:54:38;16.20;;;9.75;;
78824;SDS011;68176;45.554;10.220;2023-03-01T15:57:13;15.23;;;9.80;;
78824;SDS011;68176;45.554;10.220;2023-03-01T15:59:41;25.52;;;12.32;;
78824;SDS011;68176;45.554;10.220;2023-03-01T16:02:12;15.40;;;8.40;;
78824;SDS011;68176;45.554;10.220;2023-03-01T16:04:40;19.70;;;11.60;;
78824;SDS011;68176;45.554;10.220;2023-03-01T16:07:06;20.40;;;11.25;;
78824;SDS011;68176;45.554;10.220;2023-03-01T16:09:42;17.63;;;12.02;;
78824;SDS011;68176;45.554;10.220;2023-03-01T16:12:14;12.57;;;8.90;;
78824;SDS011;68176;45.554;10.220;2023-03-01T16:14:43;17.00;;;9.53;;
78824;SDS011;68176;45.554;10.220;2023-03-01T16:17:13;20.05;;;10.32;;
78824;SDS011;68176;45.554;10.220;2023-03-01T16:19:41;9.80;;;6.10;;
78824;SDS011;68176;45.554;10.220;2023-03-01T16:22:09;13.50;;;6.90;;
78824;SDS011;68176;45.554;10.220;2023-03-01T16:24:40;17.45;;;10.65;;
78824;SDS011;68176;45.554;10.220;2023-03-01T16:27:07;16.38;;;10.60;;
78824;SDS011;68176;45.554;10.220;2023-03-01T16:29:37;19.00;;;11.15;;
78824;SDS011;68176;45.554;10.220;2023-03-01T16:34:37;17.35;;;10.15;;
78824;SDS011;68176;45.554;10.220;2023-03-01T16:37:07;20.58;;;10.77;;
78824;SDS011;68176;45.554;10.220;2023-03-01T16:39:37;16.33;;;10.63;;
78824;SDS011;68176;45.554;10.220;2023-03-01T16:42:10;15.20;;;10.30;;
78824;SDS011;68176;45.554;10.220;2023-03-01T16:44:37;15.82;;;10.77;;
78824;SDS011;68176;45.554;10.220;2023-03-01T16:47:13;15.60;;;10.60;;
78824;SDS011;68176;45.554;10.220;2023-03-01T16:49:38;7.20;;;6.00;;
78824;SDS011;68176;45.554;10.220;2023-03-01T16:52:07;16.55;;;10.10;;
78824;SDS011;68176;45.554;10.220;2023-03-01T16:54:37;17.23;;;12.13;;
78824;SDS011;68176;45.554;10.220;2023-03-01T16:57:07;21.00;;;12.70;;
78824;SDS011;68176;45.554;10.220;2023-03-01T17:02:13;14.82;;;10.05;;
78824;SDS011;68176;45.554;10.220;2023-03-01T17:04:39;12.75;;;9.60;;
78824;SDS011;68176;45.554;10.220;2023-03-01T17:07:10;14.25;;;8.77;;
78824;SDS011;68176;45.554;10.220;2023-03-01T17:09:37;16.05;;;9.30;;
78824;SDS011;68176;45.554;10.220;2023-03-01T17:15:48;21.92;;;9.57;;
78824;SDS011;68176;45.554;10.220;2023-03-01T17:18:19;14.85;;;10.13;;
78824;SDS011;68176;45.554;10.220;2023-03-01T17:20:44;13.35;;;6.90;;
78824;SDS011;68176;45.554;10.220;2023-03-01T17:23:27;17.30;;;10.40;;
78824;SDS011;68176;45.554;10.220;2023-03-01T17:26:02;13.43;;;8.27;;
78824;SDS011;68176;45.554;10.220;2023-03-01T17:28:29;4.20;;;3.10;;
78824;SDS011;68176;45.554;10.220;2023-03-01T17:30:59;14.75;;;9.55;;
78824;SDS011;68176;45.554;10.220;2023-03-01T17:33:34;13.35;;;8.52;;
78824;SDS011;68176;45.554;10.220;2023-03-01T17:36:03;21.70;;;8.35;;
78824;SDS011;68176;45.554;10.220;2023-03-01T17:38:29;18.60;;;9.00;;
78824;SDS011;68176;45.554;10.220;2023-03-01T17:40:59;13.32;;;8.55;;
78824;SDS011;68176;45.554;10.220;2023-03-01T17:43:28;18.50;;;9.40;;
78824;SDS011;68176;45.554;10.220;2023-03-01T17:45:58;15.07;;;8.98;;
78824;SDS011;68176;45.554;10.220;2023-03-01T17:48:28;14.90;;;9.88;;
78824;SDS011;68176;45.554;10.220;2023-03-01T17:50:58;15.50;;;9.95;;
78824;SDS011;68176;45.554;10.220;2023-03-01T17:53:28;14.63;;;9.48;;
78824;SDS011;68176;45.554;10.220;2023-03-01T17:55:59;16.58;;;10.25;;
78824;SDS011;68176;45.554;10.220;2023-03-01T17:58:28;16.35;;;8.40;;
78824;SDS011;68176;45.554;10.220;2023-03-01T18:01:08;18.40;;;12.05;;
78824;SDS011;68176;45.554;10.220;2023-03-01T18:03:44;19.58;;;12.27;;
78824;SDS011;68176;45.554;10.220;2023-03-01T18:06:13;11.00;;;7.10;;
78824;SDS011;68176;45.554;10.220;2023-03-01T18:08:41;11.55;;;7.30;;
78824;SDS011;68176;45.554;10.220;2023-03-01T18:11:09;16.50;;;12.00;;
78824;SDS011;68176;45.554;10.220;2023-03-01T18:13:38;12.30;;;10.27;;
78824;SDS011;68176;45.554;10.220;2023-03-01T18:16:09;16.88;;;10.77;;
78824;SDS011;68176;45.554;10.220;2023-03-01T18:18:38;19.60;;;9.65;;
78824;SDS011;68176;45.554;10.220;2023-03-01T18:21:08;19.70;;;11.32;;
78824;SDS011;68176;45.554;10.220;2023-03-01T18:23:38;17.20;;;10.90;;
78824;SDS011;68176;45.554;10.220;2023-03-01T18:26:11;15.98;;;10.40;;
78824;SDS011;68176;45.554;10.220;2023-03-01T18:28:39;20.70;;;6.50;;
78824;SDS011;68176;45.554;10.220;2023-03-01T18:31:08;15.70;;;9.70;;